Hague, VA

4:30 AM EST on March 01, 2015 (GMT -0500)
APRSWXNET Hague VA US | Change Station
CLOSE
Current Station
Personal Weather Station
Location: Mount Holly, VA
Elevation: 9 ft
Nearby Weather Stations
Active Advisory: Winter Weather Advisory

Elev 9 ft 38.10 °N, 76.67 °W | Updated 45 minutes ago

Clear
Clear
15 °F
Feels Like 15 °F
N
0
Wind Variable Wind from NE
Gusts 0.0 mph

Today
High -- | Low -- °F
--% Chance of Precip.
Yesterday
High -- | Low -- °F
Precip. -- in
6:38 AM 5:59 PM
Waxing Gibbous, 84% visible
Pressure 30.66 in
Visibility 10.0 miles
Clouds Clear
Windchill 15 °F
Dew Point 12 °F
Humidity 87%
Rainfall 0.00 in
Snow Depth Not available.
UV 0 out of 12
Pollen 3.40 out of 12
Air Quality Not available.
Flu Activity Not available.
METAR KNUI 010853Z AUTO 00000KT 10SM CLR M08/M12 A3067 RMK AO2 SLP383 T10831117 58021

More Conditions Fewer Conditions

Pressure 30.66 in
Visibility 10.0 miles
Clouds Clear
Windchill 15 °F
Dew Point 12 °F
Humidity 87%
Rainfall 0.00 in
Snow Depth Not available.
UV 0 out of 12
Pollen 3.40 out of 12
Air Quality Not available.
Flu Activity Not available.
METAR KNUI 010853Z AUTO 00000KT 10SM CLR M08/M12 A3067 RMK AO2 SLP383 T10831117 58021

More Conditions Fewer Conditions

10-Day Weather Forecast

Almanac

Astronomy

Mar. 01, 2015 Rise Set
Actual Time
Civil Twilight
Nautical Twilight
Astronomical Twilight
Moon
Length of Visible Light
Length of Day
Tomorrow will be .
, % of the Moon is Illuminated

Today's Extremes

State Highs State Lows

Community

WunderPhotos

Upload Photos

1,801,355 photos uploaded!

WunderBlogs® & News

Nearby

Air Quality

  Air Quality AQ Index Pollutant
Not available.

Snow Depth

Station Depth Elevation

Earthquake Activity

City Distance Mag. Time & Date
Minimum magnitude displayed is 2.5.

Coastal Water Temperatures

Place Temperature

Nearby Weather Stations

Winter Weather Advisory
Statement as of 3:08 AM EST on March 01, 2015

... Winter Weather Advisory remains in effect until 4 PM EST this
afternoon...

A Winter Weather Advisory remains in effect until 4 PM EST this
afternoon.

* Areas affected: portions of central and southern Virginia.

* Hazards: primarily sleet and freezing rain.

* Accumulations: little or no snow accumulation. A trace to less
than one tenth of an inch of ice accumulation.

* Temperatures: starting in the mid 20s early this morning... then
rising into the lower to mid 30s this afternoon.

* Timing: light snow and sleet becoming sleet and freezing rain
later this morning... then transitioning to all rain during the
afternoon hours.

* Impacts: hazardous travel due to ice covered roads... bridges
and overpasses.

Precautionary/preparedness actions...

A Winter Weather Advisory means that periods of snow... sleet... or
freezing rain will cause travel difficulties. Be prepared for
slippery roads and limited visibilities... and use caution while
driving.